createdAt,value
2019-05-21T00:01:18.861Z,64.15
2019-05-21T00:06:15.630Z,64.33
2019-05-21T00:11:12.389Z,64.06
2019-05-21T00:16:09.121Z,62.95
2019-05-21T00:21:05.880Z,64.49
2019-05-21T00:26:02.619Z,64.44
2019-05-21T00:31:36.579Z,63.88
2019-05-21T00:37:13.734Z,64.51
2019-05-21T00:42:10.019Z,64.84
2019-05-21T00:47:09.995Z,64.61
2019-05-21T00:52:08.734Z,64.32
2019-05-21T00:57:05.339Z,64.66
2019-05-21T01:02:02.166Z,64.15
2019-05-21T01:06:58.914Z,64.39
2019-05-21T01:11:55.584Z,64.11
2019-05-21T01:16:55.453Z,64.32
2019-05-21T01:21:52.148Z,64.63
2019-05-21T01:26:50.771Z,64.02
2019-05-21T01:31:47.490Z,64.64
2019-05-21T01:36:44.318Z,63.73
2019-05-21T01:41:41.254Z,64.64
2019-05-21T01:46:37.972Z,64.69
2019-05-21T01:51:34.648Z,64.64
2019-05-21T01:56:31.386Z,65.35
2019-05-21T02:01:28.072Z,65.30
2019-05-21T02:06:25.147Z,64.90
2019-05-21T02:11:22.138Z,64.83
2019-05-21T02:16:19.190Z,64.91
2019-05-21T02:21:16.185Z,65.16
2019-05-21T02:26:13.287Z,64.84
2019-05-21T02:31:10.407Z,65.39
2019-05-21T02:36:07.474Z,65.32
2019-05-21T02:41:04.607Z,65.70
2019-05-21T02:46:01.652Z,65.37
2019-05-21T02:50:58.702Z,65.49
2019-05-21T02:55:55.848Z,64.90
2019-05-21T03:01:07.861Z,65.11
2019-05-21T03:06:13.896Z,65.40
2019-05-21T03:11:03.798Z,65.60
2019-05-21T03:16:02.579Z,65.15
2019-05-21T03:20:59.653Z,65.28
2019-05-21T03:25:56.847Z,64.83
2019-05-21T03:30:55.736Z,65.13
2019-05-21T03:35:52.886Z,65.34
2019-05-21T03:40:50.112Z,64.86
2019-05-21T03:45:48.214Z,65.12
2019-05-21T03:50:45.291Z,64.75
2019-05-21T03:55:43.755Z,65.04
2019-05-21T04:00:40.857Z,65.44
2019-05-21T04:05:39.772Z,65.25
2019-05-21T04:10:38.713Z,65.64
2019-05-21T04:15:41.594Z,66.05
2019-05-21T04:20:41.992Z,65.76
2019-05-21T04:25:45.711Z,65.71
2019-05-21T04:30:42.801Z,65.25
2019-05-21T04:35:41.146Z,64.85
2019-05-21T04:40:41.684Z,65.31
2019-05-21T04:45:42.617Z,65.36
2019-05-21T04:50:42.216Z,65.20
2019-05-21T04:55:39.337Z,65.14
2019-05-21T05:00:36.486Z,65.40
2019-05-21T05:05:33.587Z,65.60
2019-05-21T05:10:30.720Z,65.72
2019-05-21T05:15:30.196Z,65.33
2019-05-21T05:20:29.068Z,64.64
2019-05-21T05:25:27.938Z,65.40
2019-05-21T05:30:26.746Z,64.90
2019-05-21T05:35:25.704Z,64.67
2019-05-21T05:40:22.776Z,64.19
2019-05-21T05:45:21.382Z,64.43
2019-05-21T05:50:32.047Z,64.42
2019-05-21T05:55:36.507Z,64.04
2019-05-21T06:00:37.965Z,63.98
2019-05-21T06:05:35.107Z,63.71
2019-05-21T06:10:34.076Z,64.11
2019-05-21T06:15:36.385Z,63.74
2019-05-21T06:20:36.713Z,63.57
2019-05-21T06:25:38.741Z,63.83
2019-05-21T06:30:39.747Z,63.08
2019-05-21T06:35:36.867Z,64.07
2019-05-21T06:40:38.485Z,64.09
2019-05-21T06:45:37.506Z,63.76
2019-05-21T06:50:37.531Z,64.04
2019-05-21T06:55:53.914Z,64.11
2019-05-21T07:00:43.973Z,63.93
2019-05-21T07:05:57.729Z,64.14
2019-05-21T07:10:42.909Z,64.70
2019-05-21T07:15:50.968Z,64.69
2019-05-21T07:20:52.497Z,64.54
2019-05-21T07:25:55.075Z,64.86
2019-05-21T07:30:55.625Z,63.95
2019-05-21T07:35:52.123Z,63.55
2019-05-21T07:40:54.038Z,65.04
2019-05-21T07:45:51.289Z,64.84
2019-05-21T07:50:49.758Z,64.63
2019-05-21T07:55:49.154Z,64.38
2019-05-21T08:00:51.387Z,64.16
2019-05-21T08:05:52.363Z,64.07
2019-05-21T08:10:50.644Z,64.44
2019-05-21T08:15:48.405Z,64.01
2019-05-21T08:20:48.851Z,64.06
2019-05-21T08:25:45.957Z,63.55
2019-05-21T08:30:44.817Z,63.23
2019-05-21T08:35:45.014Z,63.50
2019-05-21T08:40:49.864Z,63.50
2019-05-21T08:45:46.806Z,62.69
2019-05-21T08:50:43.932Z,63.16
2019-05-21T08:55:41.098Z,62.54
2019-05-21T09:00:44.940Z,61.71
2019-05-21T09:05:47.866Z,61.04
2019-05-21T09:10:52.058Z,62.13
2019-05-21T09:15:52.993Z,61.10
2019-05-21T09:20:53.855Z,61.31
2019-05-21T09:25:51.026Z,61.33
2019-05-21T09:30:48.227Z,61.83
2019-05-21T09:35:50.085Z,61.39
2019-05-21T09:40:49.103Z,61.04
2019-05-21T09:45:46.293Z,60.95
2019-05-21T09:50:44.195Z,60.70
2019-05-21T09:55:41.410Z,60.32
2019-05-21T10:00:40.480Z,61.10
2019-05-21T10:05:39.563Z,60.83
2019-05-21T10:10:41.183Z,60.84
2019-05-21T10:15:41.389Z,60.58
2019-05-21T10:20:40.387Z,61.87
2019-05-21T10:25:41.359Z,60.66
2019-05-21T10:30:39.909Z,59.78
2019-05-21T10:35:39.105Z,59.63
2019-05-21T10:40:37.706Z,58.50
2019-05-21T10:45:39.776Z,60.47
2019-05-21T10:50:40.813Z,60.12
2019-05-21T10:55:52.374Z,60.83
2019-05-21T11:00:39.150Z,59.92
2019-05-21T11:05:43.187Z,60.38
2019-05-21T11:10:41.213Z,60.19
2019-05-21T11:15:42.018Z,57.50
2019-05-21T11:20:52.981Z,60.00
2019-05-21T11:25:54.001Z,58.05
2019-05-21T11:30:56.645Z,56.20
2019-05-21T11:35:58.249Z,56.68
2019-05-21T11:41:17.069Z,56.88
2019-05-21T11:46:18.079Z,57.27
2019-05-21T11:51:16.634Z,56.52
2019-05-21T11:56:15.807Z,58.18
2019-05-21T12:01:14.367Z,56.31
2019-05-21T12:06:16.149Z,56.29
2019-05-21T12:11:16.105Z,54.94
2019-05-21T12:16:15.497Z,55.03
2019-05-21T12:21:14.431Z,55.59
2019-05-21T12:26:13.100Z,54.93
2019-05-21T12:31:13.955Z,54.85
2019-05-21T12:36:11.349Z,54.91
2019-05-21T12:41:13.478Z,56.90
2019-05-21T12:46:19.819Z,54.75
2019-05-21T12:51:19.188Z,55.96
2019-05-21T12:56:21.280Z,56.27
2019-05-21T13:01:23.408Z,54.79
2019-05-21T13:06:23.210Z,55.85
2019-05-21T13:11:23.062Z,53.63
2019-05-21T13:16:28.333Z,53.91
2019-05-21T13:21:21.440Z,55.52
2019-05-21T13:26:23.495Z,52.83
2019-05-21T13:31:22.667Z,54.68
2019-05-21T13:36:23.250Z,53.86
2019-05-21T13:41:20.765Z,54.11
2019-05-21T13:46:22.117Z,53.33
2019-05-21T13:51:19.205Z,52.94
2019-05-21T13:56:20.688Z,54.43
2019-05-21T14:01:19.206Z,53.16
2019-05-21T14:06:20.474Z,52.57
2019-05-21T14:11:17.914Z,53.84
2019-05-21T14:16:18.481Z,53.16
2019-05-21T14:21:16.389Z,53.24
2019-05-21T14:26:13.906Z,52.50
2019-05-21T14:31:10.952Z,53.12
2019-05-21T14:36:08.394Z,54.00
2019-05-21T14:41:09.397Z,51.96
2019-05-21T14:46:06.605Z,52.50
2019-05-21T14:51:06.255Z,52.30
2019-05-21T14:56:03.917Z,52.64
2019-05-21T15:01:03.085Z,52.10
2019-05-21T15:06:00.217Z,52.41
2019-05-21T15:10:57.790Z,53.27
2019-05-21T15:15:54.914Z,52.14
2019-05-21T15:20:56.974Z,52.07
2019-05-21T15:25:54.351Z,51.75
2019-05-21T15:30:52.870Z,53.36
2019-05-21T15:35:50.070Z,51.92
2019-05-21T15:41:08.394Z,51.15
2019-05-21T15:45:49.854Z,51.71
2019-05-21T15:50:50.779Z,52.70
2019-05-21T15:55:47.857Z,51.70
2019-05-21T16:00:48.743Z,52.21
2019-05-21T16:05:46.880Z,52.21
2019-05-21T16:10:44.463Z,54.04
2019-05-21T16:15:43.089Z,51.70
2019-05-21T16:20:42.713Z,51.14
2019-05-21T16:25:42.116Z,50.97
2019-05-21T16:30:41.336Z,51.26
2019-05-21T16:35:38.798Z,51.59
2019-05-21T16:40:38.471Z,52.37
2019-05-21T16:45:36.065Z,51.28
2019-05-21T16:50:33.740Z,52.48
2019-05-21T16:55:36.573Z,52.22
2019-05-21T17:00:36.853Z,51.52
2019-05-21T17:05:36.787Z,52.33
2019-05-21T17:10:33.902Z,52.45
2019-05-21T17:15:33.648Z,52.69
2019-05-21T17:20:34.197Z,52.62
2019-05-21T17:25:32.492Z,52.36
2019-05-21T17:30:37.668Z,52.02
2019-05-21T17:35:37.700Z,52.32
2019-05-21T17:40:37.234Z,51.95
2019-05-21T17:45:35.377Z,52.59
2019-05-21T17:50:33.583Z,51.95
2019-05-21T17:55:32.249Z,52.91
2019-05-21T18:00:44.087Z,53.08
2019-05-21T18:05:42.229Z,52.83
2019-05-21T18:10:43.433Z,52.91
2019-05-21T18:15:43.548Z,52.92
2019-05-21T18:20:41.971Z,53.94
2019-05-21T18:25:39.395Z,53.42
2019-05-21T18:30:40.662Z,54.54
2019-05-21T18:35:45.132Z,54.43
2019-05-21T18:40:41.016Z,55.55
2019-05-21T18:45:38.098Z,54.73
2019-05-21T18:50:37.295Z,55.69
2019-05-21T18:55:39.129Z,56.39
2019-05-21T19:00:37.384Z,56.16
2019-05-21T19:05:35.589Z,56.20
2019-05-21T19:10:33.240Z,57.03
2019-05-21T19:15:33.204Z,56.88
2019-05-21T19:20:31.516Z,58.26
2019-05-21T19:25:28.925Z,59.04
2019-05-21T19:30:30.170Z,60.62
2019-05-21T19:35:27.290Z,60.91
2019-05-21T19:40:24.392Z,59.85
2019-05-21T19:45:22.062Z,62.56
2019-05-21T19:50:19.569Z,63.83
2019-05-21T19:55:17.051Z,62.84
2019-05-21T20:00:18.751Z,62.65
2019-05-21T20:05:16.428Z,62.13
2019-05-21T20:10:15.432Z,62.20
2019-05-21T20:15:14.576Z,62.90
2019-05-21T20:20:14.082Z,62.94
2019-05-21T20:25:12.245Z,62.54
2019-05-21T20:30:15.415Z,62.05
2019-05-21T20:35:15.923Z,61.97
2019-05-21T20:40:14.924Z,62.66
2019-05-21T20:45:14.086Z,62.66
2019-05-21T20:50:15.849Z,61.70
2019-05-21T20:55:15.631Z,63.61
2019-05-21T21:00:14.912Z,63.17
2019-05-21T21:05:13.373Z,62.56
2019-05-21T21:10:12.159Z,62.36
2019-05-21T21:15:13.416Z,63.49
2019-05-21T21:20:11.361Z,62.25
2019-05-21T21:25:10.466Z,62.43
2019-05-21T21:30:07.903Z,62.65
2019-05-21T21:35:08.361Z,62.98
2019-05-21T21:40:07.091Z,63.51
2019-05-21T21:45:07.363Z,63.33
2019-05-21T21:50:06.025Z,63.41
2019-05-21T21:55:08.375Z,62.53
2019-05-21T22:00:49.201Z,62.24
2019-05-21T22:05:46.740Z,63.10
2019-05-21T22:10:45.911Z,62.94
2019-05-21T22:15:43.873Z,61.98
2019-05-21T22:20:41.006Z,62.42
2019-05-21T22:25:38.100Z,62.00
2019-05-21T22:30:36.793Z,62.06
2019-05-21T22:35:35.951Z,61.96
2019-05-21T22:40:33.068Z,61.70
2019-05-21T22:45:31.300Z,62.27
2019-05-21T22:50:28.648Z,61.97
2019-05-21T22:55:25.779Z,61.69
2019-05-21T23:00:22.851Z,62.29
2019-05-21T23:05:23.049Z,61.24
2019-05-21T23:10:22.480Z,61.53
2019-05-21T23:15:25.372Z,63.05
2019-05-21T23:20:23.379Z,62.72
2019-05-21T23:25:22.255Z,61.56
2019-05-21T23:30:19.675Z,61.60
2019-05-21T23:35:18.731Z,61.76
2019-05-21T23:40:16.708Z,62.07
2019-05-21T23:45:14.895Z,61.18
2019-05-21T23:50:14.705Z,60.56
2019-05-21T23:55:11.954Z,60.58
